Climatologie pour Saint-Brevin les Pins
Jour • Résumé pour janvier 3, 2017 Système :  Métrique    Anglais   Mixte
« - 1 jour
+ 1 jour »
Jour Semaine Mois Année Personnalisé
  Maximum : Minimum : Moyenne :
Température sous abri : 5.2 °C -0.7 °C 1.5 °C
Point de rosée : 2.3 °C -1.3 °C 0.2 °C
Humidité : 97 % 79 % 91 %
Vitesse du vent : 22.5 km/h 0.0 km/h 7.6 km/h
Rafale : 29.0 km/h - -
Direction :- - ENE
Pression : 1031.0 hPa 1028.3 hPa -
Précipitations : 0.0 mm    
Historical Graphs
 
 
Tableau de données pour janvier 3, 2017
Heure Tempé Pt rosée Pression Vent Vitesse Rafale Humidité Taux pluie (/hr) Soleil
00:00 3.7 °C 2.3 °C 1028.3 hPa East 11.3 km/h 24.1 km/h 91 % 0.0 mm 0 W/m2
00:10 3.6 °C 2.3 °C 1028.3 hPa East 11.3 km/h 25.7 km/h 91 % 0.0 mm 0 W/m2
00:15 3.6 °C 2.2 °C 1028.3 hPa East 9.7 km/h 17.7 km/h 91 % 0.0 mm 0 W/m2
00:20 3.6 °C 2.2 °C 1028.3 hPa ESE 12.9 km/h 25.7 km/h 91 % 0.0 mm 0 W/m2
00:25 3.5 °C 2.2 °C 1028.3 hPa ESE 4.8 km/h 25.7 km/h 91 % 0.0 mm 0 W/m2
00:30 3.4 °C 2.0 °C 1028.3 hPa NE 11.3 km/h 29.0 km/h 90 % 0.0 mm 0 W/m2
00:35 3.4 °C 2.0 °C 1028.3 hPa ENE 4.8 km/h 29.0 km/h 90 % 0.0 mm 0 W/m2
00:40 3.4 °C 1.9 °C 1028.3 hPa NE 12.9 km/h 29.0 km/h 90 % 0.0 mm 0 W/m2
00:45 3.3 °C 1.8 °C 1028.3 hPa East 12.9 km/h 19.3 km/h 90 % 0.0 mm 0 W/m2
00:50 3.3 °C 1.8 °C 1028.3 hPa ESE 9.7 km/h 17.7 km/h 90 % 0.0 mm 0 W/m2
00:55 3.3 °C 1.8 °C 1028.3 hPa East 4.8 km/h 17.7 km/h 90 % 0.0 mm 0 W/m2
01:00 3.2 °C 1.7 °C 1028.3 hPa ENE 12.9 km/h 17.7 km/h 90 % 0.0 mm 0 W/m2
01:05 3.2 °C 1.8 °C 1028.3 hPa ESE 11.3 km/h 17.7 km/h 91 % 0.0 mm 0 W/m2
01:10 3.1 °C 1.6 °C 1028.3 hPa East 8.0 km/h 29.0 km/h 90 % 0.0 mm 0 W/m2
01:15 3.0 °C 1.5 °C 1028.3 hPa East 14.5 km/h 29.0 km/h 90 % 0.0 mm 0 W/m2
01:20 2.9 °C 1.5 °C 1028.3 hPa SE 12.9 km/h 22.5 km/h 90 % 0.0 mm 0 W/m2
01:30 2.9 °C 1.5 °C 1028.3 hPa ENE 12.9 km/h 17.7 km/h 90 % 0.0 mm 0 W/m2
01:35 2.9 °C 1.6 °C 1028.3 hPa East 9.7 km/h 16.1 km/h 91 % 0.0 mm 0 W/m2
01:40 2.9 °C 1.6 °C 1028.3 hPa SE 8.0 km/h 17.7 km/h 91 % 0.0 mm 0 W/m2
01:45 2.9 °C 1.6 °C 1028.3 hPa East 9.7 km/h 17.7 km/h 91 % 0.0 mm 0 W/m2
01:50 2.9 °C 1.6 °C 1028.3 hPa ENE 8.0 km/h 20.9 km/h 91 % 0.0 mm 0 W/m2
01:55 2.8 °C 1.5 °C 1028.3 hPa East 16.1 km/h 24.1 km/h 91 % 0.0 mm 0 W/m2
02:00 2.8 °C 1.3 °C 1028.3 hPa ESE 6.4 km/h 24.1 km/h 90 % 0.0 mm 0 W/m2
02:05 2.7 °C 1.2 °C 1028.3 hPa ESE 4.8 km/h 22.5 km/h 90 % 0.0 mm 0 W/m2
02:10 2.6 °C 1.1 °C 1028.3 hPa East 9.7 km/h 22.5 km/h 90 % 0.0 mm 0 W/m2
02:15 2.5 °C 1.0 °C 1028.3 hPa ESE 14.5 km/h 24.1 km/h 90 % 0.0 mm 0 W/m2
02:20 2.4 °C 1.0 °C 1028.3 hPa ESE 4.8 km/h 24.1 km/h 90 % 0.0 mm 0 W/m2
02:25 2.4 °C 0.9 °C 1028.7 hPa ENE 12.9 km/h 24.1 km/h 90 % 0.0 mm 0 W/m2
02:35 2.3 °C 1.0 °C 1028.7 hPa ENE 8.0 km/h 22.5 km/h 91 % 0.0 mm 0 W/m2
02:45 2.4 °C 1.1 °C 1028.7 hPa ESE 3.2 km/h 27.4 km/h 91 % 0.0 mm 0 W/m2
02:50 2.4 °C 1.1 °C 1028.7 hPa East 3.2 km/h 24.1 km/h 91 % 0.0 mm 0 W/m2
03:00 2.5 °C 1.2 °C 1028.7 hPa ENE 12.9 km/h 16.1 km/h 91 % 0.0 mm 0 W/m2
03:05 2.5 °C 1.0 °C 1028.7 hPa East 17.7 km/h 25.7 km/h 90 % 0.0 mm 0 W/m2
03:10 2.4 °C 1.0 °C 1028.7 hPa East 11.3 km/h 25.7 km/h 90 % 0.0 mm 0 W/m2
03:15 2.4 °C 1.0 °C 1028.7 hPa ENE 6.4 km/h 19.3 km/h 90 % 0.0 mm 0 W/m2
03:20 2.4 °C 1.0 °C 1028.7 hPa ENE 4.8 km/h 14.5 km/h 90 % 0.0 mm 0 W/m2
03:30 2.4 °C 1.1 °C 1028.7 hPa ENE 4.8 km/h 12.9 km/h 91 % 0.0 mm 0 W/m2
03:35 2.3 °C 1.0 °C 1029.0 hPa ENE 11.3 km/h 12.9 km/h 91 % 0.0 mm 0 W/m2
03:40 2.2 °C 0.8 °C 1029.0 hPa East 1.6 km/h 12.9 km/h 91 % 0.0 mm 0 W/m2
03:45 2.1 °C 0.7 °C 1029.0 hPa ENE 4.8 km/h 12.9 km/h 91 % 0.0 mm 0 W/m2
03:50 1.9 °C 0.6 °C 1029.0 hPa ENE 6.4 km/h 16.1 km/h 91 % 0.0 mm 0 W/m2
03:55 1.8 °C 0.5 °C 1029.0 hPa East 9.7 km/h 17.7 km/h 91 % 0.0 mm 0 W/m2
04:00 1.7 °C 0.4 °C 1029.0 hPa ENE 6.4 km/h 17.7 km/h 91 % 0.0 mm 0 W/m2
04:05 1.6 °C 0.2 °C 1029.0 hPa ENE 3.2 km/h 12.9 km/h 91 % 0.0 mm 0 W/m2
04:10 1.4 °C 0.1 °C 1029.0 hPa ENE 6.4 km/h 16.1 km/h 91 % 0.0 mm 0 W/m2
04:15 1.3 °C 0.2 °C 1029.0 hPa East 1.6 km/h 16.1 km/h 92 % 0.0 mm 0 W/m2
04:20 1.3 °C 0.1 °C 1029.0 hPa ENE 6.4 km/h 11.3 km/h 92 % 0.0 mm 0 W/m2
04:25 1.1 °C 0.0 °C 1029.0 hPa NE 4.8 km/h 11.3 km/h 92 % 0.0 mm 0 W/m2
04:30 1.1 °C -0.1 °C 1029.0 hPa ENE 3.2 km/h 12.9 km/h 92 % 0.0 mm 0 W/m2
04:35 1.0 °C -0.2 °C 1029.0 hPa ENE 11.3 km/h 12.9 km/h 92 % 0.0 mm 0 W/m2
04:40 0.9 °C -0.1 °C 1029.0 hPa East 4.8 km/h 11.3 km/h 93 % 0.0 mm 0 W/m2
04:45 0.9 °C -0.1 °C 1029.0 hPa East 9.7 km/h 12.9 km/h 93 % 0.0 mm 0 W/m2
04:50 1.0 °C 0.0 °C 1029.0 hPa ENE 4.8 km/h 12.9 km/h 93 % 0.0 mm 0 W/m2
04:55 1.0 °C 0.0 °C 1029.0 hPa East 16.1 km/h 20.9 km/h 93 % 0.0 mm 0 W/m2
05:00 1.1 °C 0.1 °C 1029.0 hPa East 4.8 km/h 20.9 km/h 93 % 0.0 mm 0 W/m2
05:05 1.1 °C 0.1 °C 1029.0 hPa ENE 16.1 km/h 24.1 km/h 93 % 0.0 mm 0 W/m2
05:10 1.1 °C 0.1 °C 1029.0 hPa East 12.9 km/h 24.1 km/h 93 % 0.0 mm 0 W/m2
05:15 1.1 °C 0.1 °C 1029.0 hPa East 4.8 km/h 20.9 km/h 93 % 0.0 mm 0 W/m2
05:20 1.1 °C 0.1 °C 1029.0 hPa ENE 14.5 km/h 17.7 km/h 93 % 0.0 mm 0 W/m2
05:25 1.1 °C 0.1 °C 1029.0 hPa ENE 6.4 km/h 17.7 km/h 93 % 0.0 mm 0 W/m2
05:30 1.1 °C 0.1 °C 1029.0 hPa ENE 11.3 km/h 20.9 km/h 93 % 0.0 mm 0 W/m2
05:35 1.0 °C 0.1 °C 1029.0 hPa ESE 9.7 km/h 20.9 km/h 94 % 0.0 mm 0 W/m2
05:40 1.0 °C 0.0 °C 1029.3 hPa East 6.4 km/h 19.3 km/h 93 % 0.0 mm 0 W/m2
05:45 0.9 °C -0.1 °C 1029.3 hPa NE 6.4 km/h 19.3 km/h 93 % 0.0 mm 0 W/m2
05:50 0.9 °C -0.1 °C 1029.3 hPa NE 8.0 km/h 17.7 km/h 93 % 0.0 mm 0 W/m2
05:55 0.9 °C -0.1 °C 1029.3 hPa NE 14.5 km/h 22.5 km/h 93 % 0.0 mm 0 W/m2
06:00 0.8 °C -0.2 °C 1029.3 hPa ENE 12.9 km/h 22.5 km/h 93 % 0.0 mm 0 W/m2
06:05 0.8 °C -0.2 °C 1029.3 hPa ENE 12.9 km/h 24.1 km/h 93 % 0.0 mm 0 W/m2
06:10 0.8 °C -0.2 °C 1029.3 hPa East 4.8 km/h 24.1 km/h 93 % 0.0 mm 0 W/m2
06:15 0.7 °C -0.3 °C 1029.3 hPa ENE 22.5 km/h 24.1 km/h 93 % 0.0 mm 0 W/m2
06:20 0.7 °C -0.3 °C 1029.3 hPa ENE 17.7 km/h 24.1 km/h 93 % 0.0 mm 0 W/m2
06:25 0.7 °C -0.3 °C 1029.3 hPa ENE 11.3 km/h 22.5 km/h 93 % 0.0 mm 0 W/m2
06:30 0.7 °C -0.3 °C 1029.3 hPa ENE 17.7 km/h 22.5 km/h 93 % 0.0 mm 0 W/m2
06:35 0.7 °C -0.3 °C 1029.3 hPa ESE 6.4 km/h 22.5 km/h 93 % 0.0 mm 0 W/m2
06:40 0.7 °C -0.3 °C 1029.3 hPa NE 4.8 km/h 19.3 km/h 93 % 0.0 mm 0 W/m2
06:45 0.7 °C -0.3 °C 1029.3 hPa NE 4.8 km/h 14.5 km/h 93 % 0.0 mm 0 W/m2
06:50 0.6 °C -0.4 °C 1029.3 hPa East 16.1 km/h 17.7 km/h 93 % 0.0 mm 0 W/m2
06:55 0.5 °C -0.5 °C 1029.3 hPa East 14.5 km/h 17.7 km/h 93 % 0.0 mm 0 W/m2
07:00 0.5 °C -0.5 °C 1029.3 hPa ENE 4.8 km/h 16.1 km/h 93 % 0.0 mm 0 W/m2
07:05 0.4 °C -0.6 °C 1029.3 hPa ENE 3.2 km/h 16.1 km/h 93 % 0.0 mm 0 W/m2
07:10 0.3 °C -0.7 °C 1029.3 hPa ENE 4.8 km/h 14.5 km/h 93 % 0.0 mm 0 W/m2
07:15 0.2 °C -0.8 °C 1029.3 hPa ENE 6.4 km/h 14.5 km/h 93 % 0.0 mm 0 W/m2
07:20 0.2 °C -0.8 °C 1029.3 hPa East 9.7 km/h 16.1 km/h 93 % 0.0 mm 0 W/m2
07:25 0.1 °C -0.9 °C 1029.3 hPa East 3.2 km/h 16.1 km/h 93 % 0.0 mm 0 W/m2
07:30 0.0 °C -1.0 °C 1029.3 hPa East 4.8 km/h 11.3 km/h 93 % 0.0 mm 0 W/m2
07:35 -0.1 °C -0.9 °C 1029.7 hPa ENE 3.2 km/h 14.5 km/h 94 % 0.0 mm 0 W/m2
07:40 -0.1 °C -1.0 °C 1029.7 hPa ESE 4.8 km/h 14.5 km/h 94 % 0.0 mm 0 W/m2
07:45 -0.2 °C -1.2 °C 1029.7 hPa East 3.2 km/h 12.9 km/h 93 % 0.0 mm 0 W/m2
07:50 -0.2 °C -1.1 °C 1029.7 hPa ENE 11.3 km/h 14.5 km/h 94 % 0.0 mm 0 W/m2
07:55 -0.2 °C -1.1 °C 1029.7 hPa East 8.0 km/h 14.5 km/h 94 % 0.0 mm 0 W/m2
08:00 -0.2 °C -1.1 °C 1029.7 hPa ENE 8.0 km/h 14.5 km/h 94 % 0.0 mm 0 W/m2
08:05 -0.2 °C -1.1 °C 1029.7 hPa ENE 4.8 km/h 17.7 km/h 94 % 0.0 mm 0 W/m2
08:10 -0.2 °C -1.1 °C 1029.7 hPa ENE 6.4 km/h 20.9 km/h 94 % 0.0 mm 0 W/m2
08:15 -0.2 °C -1.1 °C 1029.7 hPa East 3.2 km/h 20.9 km/h 94 % 0.0 mm 0 W/m2
08:20 -0.2 °C -1.1 °C 1030.0 hPa East 14.5 km/h 17.7 km/h 94 % 0.0 mm 0 W/m2
08:25 -0.2 °C -1.1 °C 1030.0 hPa East 11.3 km/h 17.7 km/h 94 % 0.0 mm 0 W/m2
08:30 -0.3 °C -1.1 °C 1029.7 hPa East 4.8 km/h 17.7 km/h 94 % 0.0 mm 0 W/m2
08:35 -0.3 °C -1.1 °C 1030.0 hPa East 3.2 km/h 16.1 km/h 94 % 0.0 mm 0 W/m2
08:40 -0.3 °C -1.1 °C 1030.0 hPa East 16.1 km/h 19.3 km/h 94 % 0.0 mm 0 W/m2
08:45 -0.2 °C -1.1 °C 1030.0 hPa ENE 4.8 km/h 19.3 km/h 94 % 0.0 mm 0 W/m2
08:50 -0.2 °C -1.1 °C 1030.0 hPa East 14.5 km/h 20.9 km/h 94 % 0.0 mm 0 W/m2
08:55 -0.2 °C -1.1 °C 1030.4 hPa East 12.9 km/h 20.9 km/h 94 % 0.0 mm 0 W/m2
09:00 -0.2 °C -0.9 °C 1030.4 hPa East 9.7 km/h 20.9 km/h 95 % 0.0 mm 5 W/m2
09:05 -0.2 °C -0.9 °C 1030.4 hPa East 8.0 km/h 20.9 km/h 95 % 0.0 mm 7 W/m2
09:10 -0.2 °C -0.9 °C 1030.4 hPa ESE 12.9 km/h 22.5 km/h 95 % 0.0 mm 9 W/m2
09:15 -0.2 °C -0.9 °C 1030.4 hPa ESE 11.3 km/h 22.5 km/h 95 % 0.0 mm 11 W/m2
09:20 -0.2 °C -0.9 °C 1030.4 hPa ESE 8.0 km/h 20.9 km/h 95 % 0.0 mm 19 W/m2
09:25 -0.2 °C -1.0 °C 1030.4 hPa East 22.5 km/h 22.5 km/h 94 % 0.0 mm 16 W/m2
09:30 -0.2 °C -1.1 °C 1030.4 hPa ENE 9.7 km/h 29.0 km/h 94 % 0.0 mm 28 W/m2
09:35 -0.2 °C -1.1 °C 1030.4 hPa East 6.4 km/h 29.0 km/h 94 % 0.0 mm 35 W/m2
09:40 -0.2 °C -1.0 °C 1030.7 hPa East 8.0 km/h 24.1 km/h 94 % 0.0 mm 28 W/m2
09:45 -0.2 °C -1.0 °C 1030.7 hPa East 16.1 km/h 24.1 km/h 94 % 0.0 mm 40 W/m2
09:50 -0.1 °C -0.8 °C 1030.7 hPa ENE 14.5 km/h 20.9 km/h 95 % 0.0 mm 51 W/m2
09:55 -0.1 °C -0.8 °C 1030.7 hPa ENE 17.7 km/h 24.1 km/h 95 % 0.0 mm 54 W/m2
10:00 -0.1 °C -0.9 °C 1030.7 hPa ENE 1.6 km/h 24.1 km/h 94 % 0.0 mm 53 W/m2
10:05 0.0 °C -0.7 °C 1031.0 hPa East 8.0 km/h 22.5 km/h 95 % 0.0 mm 49 W/m2
10:10 0.1 °C -0.6 °C 1031.0 hPa NE 8.0 km/h 19.3 km/h 95 % 0.0 mm 65 W/m2
10:15 0.1 °C -0.6 °C 1031.0 hPa ENE 3.2 km/h 17.7 km/h 95 % 0.0 mm 72 W/m2
10:20 0.1 °C -0.7 °C 1031.0 hPa ENE 3.2 km/h 17.7 km/h 94 % 0.0 mm 70 W/m2
10:25 0.1 °C -0.7 °C 1031.0 hPa East 11.3 km/h 14.5 km/h 94 % 0.0 mm 74 W/m2
10:30 0.2 °C -0.7 °C 1031.0 hPa NE 4.8 km/h 16.1 km/h 94 % 0.0 mm 141 W/m2
10:35 0.3 °C -0.5 °C 1030.7 hPa East 11.3 km/h 16.1 km/h 94 % 0.0 mm 118 W/m2
10:40 0.4 °C -0.4 °C 1031.0 hPa East 3.2 km/h 17.7 km/h 94 % 0.0 mm 162 W/m2
10:45 0.6 °C -0.3 °C 1031.0 hPa ENE 4.8 km/h 17.7 km/h 94 % 0.0 mm 181 W/m2
10:50 0.8 °C -0.2 °C 1031.0 hPa East 12.9 km/h 19.3 km/h 93 % 0.0 mm 181 W/m2
10:55 0.8 °C -0.2 °C 1031.0 hPa ENE 19.3 km/h 19.3 km/h 93 % 0.0 mm 190 W/m2
11:00 0.8 °C -0.4 °C 1031.0 hPa East 8.0 km/h 20.9 km/h 92 % 0.0 mm 195 W/m2
11:05 0.9 °C -0.2 °C 1031.0 hPa ENE 4.8 km/h 20.9 km/h 92 % 0.0 mm 204 W/m2
11:10 1.0 °C -0.2 °C 1031.0 hPa East 12.9 km/h 19.3 km/h 92 % 0.0 mm 214 W/m2
11:15 1.1 °C -0.1 °C 1031.0 hPa ENE 4.8 km/h 20.9 km/h 92 % 0.0 mm 227 W/m2
11:20 1.3 °C 0.0 °C 1031.0 hPa East 16.1 km/h 20.9 km/h 91 % 0.0 mm 234 W/m2
11:25 1.3 °C 0.0 °C 1031.0 hPa ENE 8.0 km/h 19.3 km/h 91 % 0.0 mm 244 W/m2
11:30 1.3 °C 0.0 °C 1031.0 hPa ENE 8.0 km/h 20.9 km/h 91 % 0.0 mm 251 W/m2
11:35 1.4 °C 0.1 °C 1031.0 hPa ENE 11.3 km/h 20.9 km/h 91 % 0.0 mm 251 W/m2
11:40 1.7 °C 0.2 °C 1031.0 hPa East 16.1 km/h 20.9 km/h 90 % 0.0 mm 264 W/m2
11:45 1.8 °C 0.4 °C 1030.7 hPa ENE 16.1 km/h 20.9 km/h 90 % 0.0 mm 265 W/m2
11:50 1.9 °C 0.3 °C 1030.7 hPa East 11.3 km/h 19.3 km/h 89 % 0.0 mm 272 W/m2
11:55 2.1 °C 0.4 °C 1030.7 hPa NE 9.7 km/h 19.3 km/h 89 % 0.0 mm 276 W/m2
12:00 2.1 °C 0.3 °C 1030.7 hPa East 3.2 km/h 17.7 km/h 88 % 0.0 mm 281 W/m2
12:05 2.4 °C 0.7 °C 1030.7 hPa NE 4.8 km/h 17.7 km/h 88 % 0.0 mm 287 W/m2
12:10 2.3 °C 0.4 °C 1030.7 hPa NE 4.8 km/h 17.7 km/h 87 % 0.0 mm 290 W/m2
12:15 2.4 °C 0.6 °C 1030.7 hPa NE 8.0 km/h 20.9 km/h 88 % 0.0 mm 295 W/m2
12:20 2.6 °C 1.0 °C 1030.7 hPa NE 9.7 km/h 20.9 km/h 89 % 0.0 mm 297 W/m2
12:25 2.6 °C 0.5 °C 1030.7 hPa ENE 16.1 km/h 19.3 km/h 86 % 0.0 mm 299 W/m2
12:30 2.9 °C 1.0 °C 1030.7 hPa ENE 4.8 km/h 19.3 km/h 87 % 0.0 mm 301 W/m2
12:35 3.1 °C 0.9 °C 1030.7 hPa ENE 4.8 km/h 16.1 km/h 86 % 0.0 mm 302 W/m2
12:40 3.2 °C 1.0 °C 1030.7 hPa East 4.8 km/h 16.1 km/h 86 % 0.0 mm 306 W/m2
12:45 3.4 °C 0.9 °C 1030.7 hPa East 16.1 km/h 16.1 km/h 84 % 0.0 mm 306 W/m2
12:50 3.3 °C 0.8 °C 1030.7 hPa ENE 11.3 km/h 20.9 km/h 84 % 0.0 mm 308 W/m2
12:55 3.5 °C 1.0 °C 1030.7 hPa ENE 9.7 km/h 20.9 km/h 84 % 0.0 mm 311 W/m2
13:00 3.8 °C 1.3 °C 1030.7 hPa East 11.3 km/h 19.3 km/h 84 % 0.0 mm 313 W/m2
13:05 4.0 °C 1.7 °C 1030.7 hPa ENE 6.4 km/h 16.1 km/h 85 % 0.0 mm 311 W/m2
13:10 4.2 °C 1.9 °C 1030.7 hPa NE 6.4 km/h 19.3 km/h 85 % 0.0 mm 311 W/m2
13:15 4.1 °C 1.6 °C 1030.7 hPa East 14.5 km/h 19.3 km/h 84 % 0.0 mm 313 W/m2
13:20 4.3 °C 1.9 °C 1030.7 hPa ENE 4.8 km/h 17.7 km/h 84 % 0.0 mm 311 W/m2
13:25 4.6 °C 2.0 °C 1030.4 hPa ENE 6.4 km/h 16.1 km/h 83 % 0.0 mm 308 W/m2
13:30 4.4 °C 1.6 °C 1030.4 hPa ENE 4.8 km/h 17.7 km/h 82 % 0.0 mm 304 W/m2
13:35 4.3 °C 1.3 °C 1030.4 hPa ENE 4.8 km/h 19.3 km/h 81 % 0.0 mm 306 W/m2
13:40 4.3 °C 1.5 °C 1030.4 hPa ENE 12.9 km/h 19.3 km/h 82 % 0.0 mm 304 W/m2
13:45 4.6 °C 1.6 °C 1030.4 hPa NE 11.3 km/h 17.7 km/h 81 % 0.0 mm 302 W/m2
13:50 4.4 °C 1.5 °C 1030.4 hPa ENE 11.3 km/h 17.7 km/h 81 % 0.0 mm 299 W/m2
13:55 4.3 °C 1.3 °C 1030.4 hPa East 9.7 km/h 17.7 km/h 81 % 0.0 mm 295 W/m2
14:00 4.4 °C 1.5 °C 1030.4 hPa East 4.8 km/h 16.1 km/h 81 % 0.0 mm 287 W/m2
14:05 4.3 °C 1.4 °C 1030.4 hPa ENE 12.9 km/h 17.7 km/h 81 % 0.0 mm 283 W/m2
14:10 4.6 °C 1.6 °C 1030.4 hPa ENE 11.3 km/h 17.7 km/h 81 % 0.0 mm 285 W/m2
14:15 4.7 °C 1.9 °C 1030.4 hPa ENE 3.2 km/h 20.9 km/h 82 % 0.0 mm 278 W/m2
14:20 4.9 °C 2.2 °C 1030.4 hPa ESE 8.0 km/h 20.9 km/h 83 % 0.0 mm 274 W/m2
14:25 4.6 °C 1.6 °C 1030.4 hPa East 16.1 km/h 19.3 km/h 81 % 0.0 mm 267 W/m2
14:30 4.7 °C 1.9 °C 1030.4 hPa ENE 14.5 km/h 19.3 km/h 82 % 0.0 mm 260 W/m2
14:35 4.6 °C 1.8 °C 1030.4 hPa East 12.9 km/h 19.3 km/h 82 % 0.0 mm 253 W/m2
14:40 4.8 °C 1.8 °C 1030.0 hPa NE 3.2 km/h 19.3 km/h 81 % 0.0 mm 255 W/m2
14:45 5.2 °C 2.3 °C 1030.0 hPa NE 9.7 km/h 16.1 km/h 82 % 0.0 mm 248 W/m2
14:50 5.1 °C 1.9 °C 1030.0 hPa North 8.0 km/h 16.1 km/h 80 % 0.0 mm 241 W/m2
14:55 5.1 °C 1.9 °C 1030.0 hPa NE 8.0 km/h 19.3 km/h 80 % 0.0 mm 237 W/m2
15:00 5.1 °C 2.1 °C 1030.0 hPa ENE 8.0 km/h 19.3 km/h 81 % 0.0 mm 227 W/m2
15:05 4.9 °C 2.0 °C 1030.0 hPa ENE 11.3 km/h 17.7 km/h 81 % 0.0 mm 221 W/m2
15:10 5.0 °C 2.2 °C 1030.0 hPa ENE 6.4 km/h 17.7 km/h 82 % 0.0 mm 216 W/m2
15:15 4.8 °C 1.5 °C 1030.0 hPa East 3.2 km/h 20.9 km/h 79 % 0.0 mm 206 W/m2
15:20 4.9 °C 1.7 °C 1030.0 hPa NE 11.3 km/h 20.9 km/h 80 % 0.0 mm 197 W/m2
15:25 4.9 °C 1.7 °C 1030.0 hPa ENE 6.4 km/h 20.9 km/h 80 % 0.0 mm 188 W/m2
15:30 4.8 °C 1.4 °C 1030.0 hPa East 3.2 km/h 20.9 km/h 79 % 0.0 mm 183 W/m2
15:35 4.7 °C 1.5 °C 1030.0 hPa ENE 8.0 km/h 17.7 km/h 80 % 0.0 mm 172 W/m2
15:40 4.8 °C 1.8 °C 1030.0 hPa ESE 12.9 km/h 17.7 km/h 81 % 0.0 mm 160 W/m2
15:50 4.7 °C 1.5 °C 1030.0 hPa ENE 16.1 km/h 22.5 km/h 80 % 0.0 mm 51 W/m2
15:55 4.4 °C 1.5 °C 1030.0 hPa NE 16.1 km/h 24.1 km/h 81 % 0.0 mm 86 W/m2
16:00 4.4 °C 1.6 °C 1030.0 hPa East 8.0 km/h 24.1 km/h 82 % 0.0 mm 46 W/m2
16:05 4.3 °C 1.7 °C 1030.0 hPa NNE 12.9 km/h 17.7 km/h 83 % 0.0 mm 51 W/m2
16:10 4.2 °C 1.8 °C 1030.0 hPa ENE 8.0 km/h 20.9 km/h 84 % 0.0 mm 56 W/m2
16:15 4.1 °C 1.8 °C 1030.0 hPa Calm   20.9 km/h 85 % 0.0 mm 83 W/m2
16:20 4.1 °C 1.8 °C 1030.0 hPa East 8.0 km/h 17.7 km/h 85 % 0.0 mm 74 W/m2
16:25 4.1 °C 1.6 °C 1030.0 hPa ESE 6.4 km/h 16.1 km/h 84 % 0.0 mm 69 W/m2
16:35 3.8 °C 1.7 °C 1030.0 hPa ENE 6.4 km/h 14.5 km/h 86 % 0.0 mm 30 W/m2
16:40 3.7 °C 1.5 °C 1029.7 hPa East 12.9 km/h 16.1 km/h 86 % 0.0 mm 28 W/m2
16:45 3.4 °C 1.3 °C 1030.0 hPa ENE 6.4 km/h 17.7 km/h 86 % 0.0 mm 25 W/m2
16:50 3.3 °C 1.3 °C 1029.7 hPa ENE 1.6 km/h 17.7 km/h 87 % 0.0 mm 23 W/m2
16:55 3.1 °C 1.2 °C 1029.7 hPa ENE 6.4 km/h 16.1 km/h 87 % 0.0 mm 19 W/m2
17:00 2.8 °C 1.0 °C 1029.7 hPa ENE 6.4 km/h 16.1 km/h 88 % 0.0 mm 18 W/m2
17:05 2.8 °C 1.1 °C 1029.7 hPa East 12.9 km/h 14.5 km/h 89 % 0.0 mm 16 W/m2
17:10 2.7 °C 1.1 °C 1029.7 hPa ENE 4.8 km/h 14.5 km/h 89 % 0.0 mm 14 W/m2
17:15 2.5 °C 0.9 °C 1029.7 hPa NE 3.2 km/h 14.5 km/h 89 % 0.0 mm 12 W/m2
17:20 2.3 °C 0.8 °C 1029.7 hPa NE 6.4 km/h 9.7 km/h 90 % 0.0 mm 9 W/m2
17:25 2.1 °C 0.6 °C 1029.7 hPa NE 4.8 km/h 11.3 km/h 90 % 0.0 mm 7 W/m2
17:30 1.9 °C 0.6 °C 1029.7 hPa NE 3.2 km/h 11.3 km/h 91 % 0.0 mm 5 W/m2
17:35 1.7 °C 0.4 °C 1029.7 hPa NE 3.2 km/h 9.7 km/h 91 % 0.0 mm 0 W/m2
17:40 1.6 °C 0.4 °C 1029.7 hPa NE 3.2 km/h 9.7 km/h 92 % 0.0 mm 0 W/m2
17:45 1.3 °C 0.1 °C 1030.0 hPa NE 6.4 km/h 8.0 km/h 92 % 0.0 mm 0 W/m2
17:50 1.0 °C 0.0 °C 1029.7 hPa NE 1.6 km/h 8.0 km/h 93 % 0.0 mm 0 W/m2
17:55 1.0 °C 0.0 °C 1029.7 hPa ENE 4.8 km/h 8.0 km/h 93 % 0.0 mm 0 W/m2
18:00 1.1 °C 0.1 °C 1029.7 hPa NE 4.8 km/h 12.9 km/h 93 % 0.0 mm 0 W/m2
18:05 1.1 °C 0.3 °C 1030.0 hPa ENE 3.2 km/h 12.9 km/h 94 % 0.0 mm 0 W/m2
18:10 1.1 °C 0.2 °C 1030.0 hPa ENE 11.3 km/h 12.9 km/h 94 % 0.0 mm 0 W/m2
18:15 1.0 °C 0.1 °C 1030.0 hPa ENE 3.2 km/h 11.3 km/h 94 % 0.0 mm 0 W/m2
18:20 1.0 °C 0.1 °C 1030.0 hPa ENE 4.8 km/h 11.3 km/h 94 % 0.0 mm 0 W/m2
18:25 0.9 °C 0.1 °C 1030.0 hPa Calm   9.7 km/h 94 % 0.0 mm 0 W/m2
18:30 0.8 °C 0.0 °C 1030.0 hPa ENE 3.2 km/h 9.7 km/h 94 % 0.0 mm 0 W/m2
18:35 0.7 °C -0.3 °C 1030.0 hPa NE 4.8 km/h 9.7 km/h 93 % 0.0 mm 0 W/m2
18:45 0.6 °C -0.3 °C 1030.0 hPa ENE 3.2 km/h 9.7 km/h 94 % 0.0 mm 0 W/m2
18:50 0.5 °C -0.4 °C 1030.0 hPa East 3.2 km/h 9.7 km/h 94 % 0.0 mm 0 W/m2
18:55 0.4 °C -0.5 °C 1030.0 hPa Calm   11.3 km/h 94 % 0.0 mm 0 W/m2
19:00 0.4 °C -0.4 °C 1030.0 hPa Calm   11.3 km/h 94 % 0.0 mm 0 W/m2
19:05 0.3 °C -0.5 °C 1030.0 hPa ENE 3.2 km/h 8.0 km/h 94 % 0.0 mm 0 W/m2
19:10 0.4 °C -0.5 °C 1030.0 hPa Calm   6.4 km/h 94 % 0.0 mm 0 W/m2
19:15 0.2 °C -0.7 °C 1030.0 hPa ENE 3.2 km/h 8.0 km/h 94 % 0.0 mm 0 W/m2
19:20 0.1 °C -0.8 °C 1030.0 hPa ENE 1.6 km/h 8.0 km/h 94 % 0.0 mm 0 W/m2
19:30 -0.1 °C -0.9 °C 1030.4 hPa East 1.6 km/h 8.0 km/h 94 % 0.0 mm 0 W/m2
19:35 -0.1 °C -0.8 °C 1030.4 hPa ENE 3.2 km/h 8.0 km/h 95 % 0.0 mm 0 W/m2
19:40 0.1 °C -0.6 °C 1030.4 hPa ENE 1.6 km/h 8.0 km/h 95 % 0.0 mm 0 W/m2
19:45 0.0 °C -0.7 °C 1030.4 hPa Calm   6.4 km/h 95 % 0.0 mm 0 W/m2
19:50 -0.1 °C -0.8 °C 1030.4 hPa Calm   4.8 km/h 95 % 0.0 mm 0 W/m2
19:55 -0.1 °C -0.8 °C 1030.4 hPa Calm   4.8 km/h 95 % 0.0 mm 0 W/m2
20:00 -0.2 °C -0.9 °C 1030.4 hPa ENE 1.6 km/h 4.8 km/h 95 % 0.0 mm 0 W/m2
20:05 -0.3 °C -1.0 °C 1030.4 hPa ENE 1.6 km/h 4.8 km/h 95 % 0.0 mm 0 W/m2
20:10 -0.5 °C -1.2 °C 1030.4 hPa ENE 1.6 km/h 4.8 km/h 95 % 0.0 mm 0 W/m2
20:15 -0.4 °C -1.1 °C 1030.4 hPa ENE 3.2 km/h 9.7 km/h 95 % 0.0 mm 0 W/m2
20:20 -0.4 °C -1.1 °C 1030.4 hPa ENE 6.4 km/h 11.3 km/h 95 % 0.0 mm 0 W/m2
20:25 -0.6 °C -1.3 °C 1030.7 hPa ENE 8.0 km/h 11.3 km/h 95 % 0.0 mm 0 W/m2
20:30 -0.6 °C -1.1 °C 1030.7 hPa East 14.5 km/h 14.5 km/h 96 % 0.0 mm 0 W/m2
20:35 -0.6 °C -1.1 °C 1030.7 hPa East 4.8 km/h 16.1 km/h 96 % 0.0 mm 0 W/m2
20:40 -0.6 °C -1.1 °C 1030.7 hPa ENE 3.2 km/h 16.1 km/h 96 % 0.0 mm 0 W/m2
20:45 -0.5 °C -1.1 °C 1030.7 hPa East 6.4 km/h 14.5 km/h 96 % 0.0 mm 0 W/m2
20:50 -0.4 °C -0.9 °C 1030.7 hPa ENE 6.4 km/h 12.9 km/h 96 % 0.0 mm 0 W/m2
20:55 -0.3 °C -0.9 °C 1030.7 hPa ENE 4.8 km/h 16.1 km/h 96 % 0.0 mm 0 W/m2
21:00 -0.2 °C -0.6 °C 1031.0 hPa ENE 1.6 km/h 16.1 km/h 97 % 0.0 mm 0 W/m2
21:05 -0.2 °C -0.6 °C 1030.7 hPa East 11.3 km/h 11.3 km/h 97 % 0.0 mm 0 W/m2
21:15 -0.1 °C -0.5 °C 1031.0 hPa NE 1.6 km/h 14.5 km/h 97 % 0.0 mm 0 W/m2
21:20 0.0 °C -0.4 °C 1031.0 hPa NE 3.2 km/h 11.3 km/h 97 % 0.0 mm 0 W/m2
21:25 0.0 °C -0.4 °C 1031.0 hPa ENE 3.2 km/h 8.0 km/h 97 % 0.0 mm 0 W/m2
21:30 0.1 °C -0.4 °C 1031.0 hPa Calm   11.3 km/h 97 % 0.0 mm 0 W/m2
21:35 0.1 °C -0.4 °C 1031.0 hPa ENE 4.8 km/h 11.3 km/h 97 % 0.0 mm 0 W/m2
21:40 0.0 °C -0.4 °C 1031.0 hPa ESE 8.0 km/h 14.5 km/h 97 % 0.0 mm 0 W/m2
21:45 0.0 °C -0.4 °C 1031.0 hPa ENE 4.8 km/h 14.5 km/h 97 % 0.0 mm 0 W/m2
21:50 0.1 °C -0.4 °C 1031.0 hPa East 9.7 km/h 11.3 km/h 97 % 0.0 mm 0 W/m2
21:55 0.0 °C -0.4 °C 1031.0 hPa East 6.4 km/h 11.3 km/h 97 % 0.0 mm 0 W/m2
22:00 -0.1 °C -0.5 °C 1031.0 hPa East 11.3 km/h 11.3 km/h 97 % 0.0 mm 0 W/m2
22:05 -0.2 °C -0.6 °C 1031.0 hPa East 3.2 km/h 12.9 km/h 97 % 0.0 mm 0 W/m2
22:10 -0.2 °C -0.6 °C 1031.0 hPa East 8.0 km/h 12.9 km/h 97 % 0.0 mm 0 W/m2
22:15 -0.2 °C -0.6 °C 1031.0 hPa ENE 3.2 km/h 12.9 km/h 97 % 0.0 mm 0 W/m2
22:20 -0.2 °C -0.6 °C 1031.0 hPa East 3.2 km/h 12.9 km/h 97 % 0.0 mm 0 W/m2
22:25 -0.2 °C -0.6 °C 1031.0 hPa ESE 1.6 km/h 9.7 km/h 97 % 0.0 mm 0 W/m2
22:30 -0.2 °C -0.6 °C 1031.0 hPa East 6.4 km/h 12.9 km/h 97 % 0.0 mm 0 W/m2
22:35 -0.2 °C -0.6 °C 1031.0 hPa ENE 4.8 km/h 12.9 km/h 97 % 0.0 mm 0 W/m2
22:40 -0.2 °C -0.6 °C 1031.0 hPa ESE 1.6 km/h 11.3 km/h 97 % 0.0 mm 0 W/m2
22:45 -0.2 °C -0.6 °C 1031.0 hPa East 1.6 km/h 9.7 km/h 97 % 0.0 mm 0 W/m2
22:50 -0.2 °C -0.6 °C 1031.0 hPa Calm   8.0 km/h 97 % 0.0 mm 0 W/m2
22:55 -0.2 °C -0.6 °C 1031.0 hPa East 6.4 km/h 11.3 km/h 97 % 0.0 mm 0 W/m2
23:00 -0.3 °C -0.8 °C 1031.0 hPa ENE 6.4 km/h 12.9 km/h 97 % 0.0 mm 0 W/m2
23:05 -0.3 °C -0.8 °C 1031.0 hPa ENE 3.2 km/h 12.9 km/h 97 % 0.0 mm 0 W/m2
23:10 -0.4 °C -0.8 °C 1031.0 hPa ENE 3.2 km/h 11.3 km/h 97 % 0.0 mm 0 W/m2
23:15 -0.4 °C -0.8 °C 1031.0 hPa ENE 3.2 km/h 14.5 km/h 97 % 0.0 mm 0 W/m2
23:20 -0.4 °C -0.9 °C 1031.0 hPa ESE 3.2 km/h 14.5 km/h 97 % 0.0 mm 0 W/m2
23:25 -0.4 °C -0.9 °C 1031.0 hPa East 4.8 km/h 14.5 km/h 97 % 0.0 mm 0 W/m2
23:30 -0.4 °C -0.8 °C 1031.0 hPa ENE 1.6 km/h 14.5 km/h 97 % 0.0 mm 0 W/m2
23:35 -0.4 °C -0.9 °C 1031.0 hPa ENE 8.0 km/h 12.9 km/h 97 % 0.0 mm 0 W/m2
23:40 -0.6 °C -1.0 °C 1031.0 hPa East 8.0 km/h 14.5 km/h 97 % 0.0 mm 0 W/m2
23:45 -0.6 °C -1.0 °C 1031.0 hPa East 4.8 km/h 14.5 km/h 97 % 0.0 mm 0 W/m2
23:50 -0.7 °C -1.1 °C 1031.0 hPa East 1.6 km/h 12.9 km/h 97 % 0.0 mm 0 W/m2
23:55 -0.7 °C -1.1 °C 1030.7 hPa East 4.8 km/h 12.9 km/h 97 % 0.0 mm 0 W/m2
Avec l'autorisation de Weather Underground - 1.75 mb